Time;durP1;ratioP1;P1;durP2;ratioP2;P2;SDS_P1;SDS_P2;PMS_P1;PMS_P2;Temp;Humidity;BMP_temperature;BMP_pressure;BME280_temperature;BME280_humidity;BME280_pressure;Samples;Min_cycle;Max_cycle;Signal;HPM_P1;HPM_P2
2022/01/17 00:01:55;;;;;;;15.13;2.20;;;15.50;73.10;;;;;;4079505;28;20063;-63
2022/01/17 00:04:18;;;;;;;11.27;2.75;;;15.50;73.20;;;;;;4078444;28;20131;-63
2022/01/17 00:06:43;;;;;;;18.02;2.63;;;15.50;73.50;;;;;;4085079;28;20488;-63
2022/01/17 00:09:07;;;;;;;16.20;2.80;;;15.50;73.50;;;;;;4094293;28;20043;-63
2022/01/17 00:11:34;;;;;;;13.98;2.47;;;15.50;73.50;;;;;;4094410;28;20094;-63
2022/01/17 00:13:58;;;;;;;9.80;2.50;;;15.50;73.60;;;;;;4094343;28;20055;-63
2022/01/17 00:16:32;;;;;;;13.35;2.67;;;15.50;73.70;;;;;;4093735;28;20110;-63
2022/01/17 00:21:35;;;;;;;15.55;2.10;;;15.40;73.40;;;;;;4092006;28;20703;-63
2022/01/17 00:23:58;;;;;;;14.13;2.28;;;15.40;73.50;;;;;;4095489;28;20106;-63
2022/01/17 00:26:21;;;;;;;5.95;1.85;;;15.40;73.40;;;;;;4092072;28;20091;-63
2022/01/17 00:28:45;;;;;;;14.77;2.28;;;15.40;73.50;;;;;;4079368;29;20055;-64
2022/01/17 00:31:08;;;;;;;12.20;2.60;;;15.40;73.60;;;;;;4081968;29;20115;-64
2022/01/17 00:33:32;;;;;;;11.57;2.65;;;15.40;73.50;;;;;;4082967;28;20059;-63
2022/01/17 00:35:55;;;;;;;13.60;2.83;;;15.30;73.30;;;;;;4097258;28;20048;-63
2022/01/17 00:38:17;;;;;;;17.05;2.47;;;15.30;73.40;;;;;;4096743;28;20479;-63
2022/01/17 00:40:42;;;;;;;16.95;2.00;;;15.30;73.30;;;;;;4095645;28;20052;-63
2022/01/17 00:43:05;;;;;;;21.67;3.85;;;15.30;73.20;;;;;;4096992;28;20167;-63
2022/01/17 00:45:30;;;;;;;9.80;1.85;;;15.30;73.00;;;;;;4097337;28;20059;-64
2022/01/17 00:47:55;;;;;;;14.63;2.30;;;15.30;73.40;;;;;;4096445;28;20482;-64
2022/01/17 00:50:18;;;;;;;15.57;2.70;;;15.30;73.70;;;;;;4095004;28;20086;-63
2022/01/17 00:52:41;;;;;;;9.00;2.25;;;15.30;73.70;;;;;;4081133;29;20048;-64
2022/01/17 00:55:05;;;;;;;10.43;2.58;;;15.20;73.90;;;;;;4081213;29;20106;-64
2022/01/17 00:57:28;;;;;;;14.85;2.22;;;15.20;74.20;;;;;;4082301;28;20076;-64
2022/01/17 00:59:51;;;;;;;12.43;2.08;;;15.20;73.90;;;;;;4081511;28;20051;-63
2022/01/17 01:02:15;;;;;;;15.60;2.50;;;15.20;74.60;;;;;;4081266;28;20055;-64
2022/01/17 01:04:38;;;;;;;12.68;2.35;;;15.20;73.00;;;;;;4081119;28;20052;-64
2022/01/17 01:07:01;;;;;;;14.40;3.08;;;15.20;72.80;;;;;;4082090;28;20109;-64
2022/01/17 01:09:28;;;;;;;13.85;2.30;;;15.10;72.90;;;;;;4081131;29;20170;-63
2022/01/17 01:11:51;;;;;;;12.75;2.20;;;15.10;73.00;;;;;;4096787;28;20043;-64
2022/01/17 01:14:15;;;;;;;16.02;2.72;;;15.10;73.00;;;;;;4096551;28;20047;-63
2022/01/17 01:16:38;;;;;;;12.90;2.78;;;15.10;73.20;;;;;;4096723;28;20450;-63
2022/01/17 01:22:00;;;;;;;14.20;2.78;;;15.10;74.60;;;;;;4096015;28;20055;-63
2022/01/17 01:29:48;;;;;;;13.68;2.58;;;15.00;73.20;;;;;;4095484;28;20479;-63
2022/01/17 01:32:13;;;;;;;18.58;3.20;;;15.00;73.50;;;;;;4096572;28;20105;-63
2022/01/17 01:34:41;;;;;;;14.00;2.25;;;15.00;72.90;;;;;;4095474;28;20090;-63
2022/01/17 01:37:04;;;;;;;13.23;2.90;;;15.00;73.40;;;;;;4096090;28;20062;-63
2022/01/17 01:39:27;;;;;;;15.07;3.05;;;15.00;72.30;;;;;;4081492;28;20055;-65
2022/01/17 01:41:51;;;;;;;18.27;2.80;;;14.90;73.80;;;;;;4091230;28;20098;-65
2022/01/17 01:44:16;;;;;;;15.27;2.72;;;14.90;73.30;;;;;;4095934;28;20126;-65
2022/01/17 01:46:40;;;;;;;12.75;2.20;;;14.90;73.20;;;;;;4096137;28;20047;-64
2022/01/17 01:49:03;;;;;;;19.02;3.05;;;14.90;72.90;;;;;;4096111;28;20451;-63
2022/01/17 01:51:27;;;;;;;13.10;2.58;;;14.90;72.90;;;;;;4095938;28;20106;-63
2022/01/17 01:53:51;;;;;;;15.20;2.55;;;14.90;72.80;;;;;;4092628;28;20055;-64
2022/01/17 01:56:14;;;;;;;11.18;2.10;;;14.90;72.40;;;;;;4080374;29;20047;-63
2022/01/17 01:58:39;;;;;;;17.60;2.65;;;14.90;72.40;;;;;;4081547;28;20051;-63
2022/01/17 02:01:02;;;;;;;10.27;2.35;;;14.80;72.80;;;;;;4080436;29;20102;-63
2022/01/17 02:03:26;;;;;;;14.65;2.33;;;14.80;73.10;;;;;;4081758;28;20059;-63
2022/01/17 02:05:49;;;;;;;11.90;2.42;;;14.80;73.60;;;;;;4080383;28;20063;-63
2022/01/17 02:08:15;;;;;;;11.70;2.35;;;14.80;73.40;;;;;;4079792;28;20048;-63
2022/01/17 02:10:38;;;;;;;12.30;2.13;;;14.80;73.20;;;;;;4080346;28;20051;-63
2022/01/17 02:13:01;;;;;;;9.45;2.40;;;14.80;73.60;;;;;;4080364;28;20098;-63
2022/01/17 02:15:24;;;;;;;12.43;2.15;;;14.80;74.50;;;;;;4087986;28;20102;-63
2022/01/17 02:17:54;;;;;;;12.68;2.58;;;14.70;73.70;;;;;;4080246;29;20055;-63
2022/01/17 02:20:21;;;;;;;9.90;1.70;;;14.70;73.90;;;;;;4081123;28;20085;-63
2022/01/17 02:22:44;;;;;;;10.85;1.92;;;14.70;73.40;;;;;;4079562;28;20051;-63
2022/01/17 02:25:08;;;;;;;10.25;2.15;;;14.70;73.60;;;;;;4079729;28;20056;-63
2022/01/17 02:27:31;;;;;;;16.13;2.72;;;14.70;74.00;;;;;;4080342;28;20099;-63
2022/01/17 02:29:54;;;;;;;14.30;2.17;;;14.70;73.80;;;;;;4083217;28;20051;-63
2022/01/17 02:32:17;;;;;;;16.48;2.50;;;14.70;73.90;;;;;;4094081;28;20059;-63
2022/01/17 02:34:42;;;;;;;15.23;2.65;;;14.70;73.50;;;;;;4094838;28;20055;-64
2022/01/17 02:37:07;;;;;;;16.45;3.40;;;14.70;73.70;;;;;;4095125;28;20102;-64
2022/01/17 02:39:29;;;;;;;12.55;3.50;;;14.70;74.00;;;;;;4086266;28;20110;-63
2022/01/17 02:41:52;;;;;;;12.25;2.17;;;14.70;74.10;;;;;;4079869;28;20123;-64
2022/01/17 02:44:16;;;;;;;16.90;2.95;;;14.60;73.90;;;;;;4079684;28;20051;-64
2022/01/17 02:46:39;;;;;;;11.02;2.30;;;14.60;75.10;;;;;;4079468;28;20055;-64
2022/01/17 02:49:05;;;;;;;15.68;2.30;;;14.60;74.60;;;;;;4085981;28;20051;-64
2022/01/17 02:51:29;;;;;;;16.08;2.60;;;14.60;73.90;;;;;;4095283;28;20078;-64
2022/01/17 02:53:54;;;;;;;13.25;2.72;;;14.60;73.50;;;;;;4081484;28;20452;-64
2022/01/17 02:56:18;;;;;;;16.38;2.42;;;14.60;74.30;;;;;;4079521;28;20492;-64
2022/01/17 02:58:42;;;;;;;15.05;2.45;;;14.60;73.70;;;;;;4079435;28;20102;-63
2022/01/17 03:01:07;;;;;;;13.73;2.92;;;14.50;73.70;;;;;;4078210;28;20440;-64
2022/01/17 03:03:32;;;;;;;17.08;2.85;;;14.50;73.80;;;;;;4079548;28;20095;-64
2022/01/17 03:05:55;;;;;;;9.82;2.33;;;14.50;73.70;;;;;;4080190;28;20067;-64
2022/01/17 03:08:20;;;;;;;17.15;2.53;;;14.50;74.40;;;;;;4079376;29;20052;-64
2022/01/17 03:10:47;;;;;;;10.02;1.80;;;14.50;74.00;;;;;;4091509;28;20094;-64
2022/01/17 03:13:14;;;;;;;20.90;2.88;;;14.50;74.10;;;;;;4078851;29;20099;-64
2022/01/17 03:15:37;;;;;;;9.85;2.17;;;14.50;73.90;;;;;;4081694;28;20059;-64
2022/01/17 03:18:00;;;;;;;10.98;2.20;;;14.50;74.00;;;;;;4079456;28;20373;-64
2022/01/17 03:20:23;;;;;;;15.77;2.70;;;14.50;73.60;;;;;;4078801;28;20063;-63
2022/01/17 03:22:46;;;;;;;9.63;1.98;;;14.50;73.90;;;;;;4080066;28;20052;-63
2022/01/17 03:25:10;;;;;;;9.98;2.28;;;14.50;74.70;;;;;;4092640;28;20097;-64
2022/01/17 03:27:34;;;;;;;10.73;2.20;;;14.50;75.60;;;;;;4094577;28;20047;-63
2022/01/17 03:29:57;;;;;;;15.82;2.35;;;14.50;75.60;;;;;;4106282;28;20161;-64
2022/01/17 03:32:20;;;;;;;10.80;2.25;;;14.60;75.50;;;;;;4094937;28;20047;-64
2022/01/17 03:34:44;;;;;;;10.02;2.17;;;14.70;75.40;;;;;;4094901;28;20102;-63
2022/01/17 03:37:07;;;;;;;10.90;2.10;;;14.70;75.10;;;;;;4094527;28;20107;-63
2022/01/17 03:39:30;;;;;;;14.50;2.58;;;14.80;75.10;;;;;;4092066;28;20055;-63
2022/01/17 03:41:53;;;;;;;16.48;2.50;;;14.80;75.00;;;;;;4078803;29;20499;-63
2022/01/17 03:44:18;;;;;;;9.15;2.45;;;14.80;74.50;;;;;;4077707;28;20424;-63
2022/01/17 03:46:41;;;;;;;7.55;1.92;;;14.80;74.20;;;;;;4077248;28;20495;-63
2022/01/17 03:49:04;;;;;;;12.43;2.60;;;14.80;74.40;;;;;;4078523;28;20114;-63
2022/01/17 03:51:27;;;;;;;9.20;2.08;;;14.80;74.20;;;;;;4078490;29;20047;-63
2022/01/17 03:53:50;;;;;;;16.02;2.35;;;14.80;74.20;;;;;;4078415;29;20051;-63
2022/01/17 03:56:13;;;;;;;10.35;2.35;;;14.90;74.40;;;;;;4078805;29;20044;-63
2022/01/17 03:58:36;;;;;;;10.65;2.13;;;14.90;74.50;;;;;;4076499;28;20488;-63
2022/01/17 04:01:02;;;;;;;11.63;2.35;;;14.90;74.40;;;;;;4079062;28;20448;-63
2022/01/17 04:03:26;;;;;;;13.63;2.47;;;15.00;74.20;;;;;;4088715;28;20090;-63
2022/01/17 04:05:49;;;;;;;14.52;2.50;;;15.00;73.70;;;;;;4078305;29;20047;-63
2022/01/17 04:08:13;;;;;;;11.35;2.05;;;15.10;73.80;;;;;;4078524;29;20051;-63
2022/01/17 04:10:36;;;;;;;11.38;2.95;;;15.10;73.70;;;;;;4078514;29;20100;-62
2022/01/17 04:13:03;;;;;;;10.98;2.30;;;15.20;73.40;;;;;;4078618;28;20055;-62
2022/01/17 04:15:26;;;;;;;13.73;2.33;;;15.20;73.10;;;;;;4078424;29;20477;-62
2022/01/17 04:17:51;;;;;;;13.48;2.33;;;15.20;73.10;;;;;;4078554;29;20044;-62
2022/01/17 04:20:25;;;;;;;12.35;2.08;;;15.20;73.10;;;;;;4078484;29;20078;-62
2022/01/17 04:22:53;;;;;;;12.75;2.38;;;15.20;73.10;;;;;;4078018;29;20472;-62
2022/01/17 04:25:15;;;;;;;9.65;2.55;;;15.10;73.10;;;;;;4090674;28;20059;-62
2022/01/17 04:27:38;;;;;;;10.80;2.17;;;15.10;73.00;;;;;;4078237;28;20103;-63
2022/01/17 04:30:03;;;;;;;10.68;1.80;;;15.10;73.10;;;;;;4078104;28;20107;-62
2022/01/17 04:32:25;;;;;;;10.52;2.15;;;15.20;73.50;;;;;;4093935;28;20050;-62
2022/01/17 04:34:50;;;;;;;9.93;2.20;;;15.20;73.20;;;;;;4094130;28;20106;-62
2022/01/17 04:37:13;;;;;;;9.35;1.90;;;15.30;73.00;;;;;;4094220;28;20043;-62
2022/01/17 04:39:36;;;;;;;14.73;2.83;;;15.40;72.70;;;;;;4085642;28;20052;-63
2022/01/17 04:42:02;;;;;;;14.75;2.08;;;15.40;72.40;;;;;;4078775;28;20480;-63
2022/01/17 04:47:02;;;;;;;10.25;2.17;;;15.60;71.70;;;;;;4076090;28;20055;-63
2022/01/17 04:49:24;;;;;;;12.35;2.38;;;15.70;71.30;;;;;;4078341;29;20103;-63
2022/01/17 04:51:53;;;;;;;11.15;2.40;;;15.70;71.00;;;;;;4078118;29;20528;-62
2022/01/17 04:54:38;;;;;;;12.13;2.40;;;15.70;70.90;;;;;;4091299;28;20054;-62
2022/01/17 04:57:01;;;;;;;10.52;1.48;;;15.70;70.80;;;;;;4079805;28;20052;-63
2022/01/17 04:59:24;;;;;;;11.70;2.10;;;15.60;70.90;;;;;;4092692;28;20114;-61
2022/01/17 05:01:47;;;;;;;11.15;2.13;;;15.60;71.20;;;;;;4081636;28;20524;-63
2022/01/17 05:04:10;;;;;;;9.55;2.00;;;15.60;71.30;;;;;;4078012;28;20099;-62
2022/01/17 05:06:33;;;;;;;10.77;2.33;;;15.50;71.30;;;;;;4079980;28;20055;-62
2022/01/17 05:08:58;;;;;;;11.35;2.58;;;15.50;71.40;;;;;;4094521;28;20105;-62
2022/01/17 05:11:24;;;;;;;11.57;2.25;;;15.40;71.60;;;;;;4096999;28;20047;-62
2022/01/17 05:13:49;;;;;;;9.77;2.53;;;15.40;71.60;;;;;;4095981;28;20114;-63
2022/01/17 05:16:14;;;;;;;13.50;2.10;;;15.30;71.70;;;;;;4080940;29;20094;-63
2022/01/17 05:21:18;;;;;;;11.13;2.55;;;15.30;72.70;;;;;;4090497;28;20047;-63
2022/01/17 05:23:42;;;;;;;13.32;2.75;;;15.40;73.20;;;;;;4096634;28;20455;-63
2022/01/17 05:26:07;;;;;;;8.52;2.20;;;15.50;71.90;;;;;;4096565;28;20047;-63
2022/01/17 05:28:30;;;;;;;8.27;1.80;;;15.60;71.50;;;;;;4096608;28;20130;-63
2022/01/17 05:30:53;;;;;;;15.95;3.38;;;15.70;71.10;;;;;;4087518;28;20052;-63
2022/01/17 05:33:16;;;;;;;10.70;2.67;;;15.70;70.60;;;;;;4080571;29;20083;-62
2022/01/17 05:35:39;;;;;;;9.57;2.20;;;15.80;70.50;;;;;;4094027;28;20479;-62
2022/01/17 05:38:06;;;;;;;10.50;2.33;;;15.80;70.40;;;;;;4096458;28;20446;-63
2022/01/17 05:40:29;;;;;;;12.60;3.13;;;15.80;70.30;;;;;;4096469;28;20099;-62
2022/01/17 05:42:54;;;;;;;11.10;2.72;;;15.80;70.40;;;;;;4096273;28;20109;-62
2022/01/17 05:45:18;;;;;;;8.93;2.78;;;15.80;70.40;;;;;;4087759;28;20048;-62
2022/01/17 05:47:42;;;;;;;12.15;2.63;;;15.80;70.40;;;;;;4080039;29;20055;-63
2022/01/17 05:50:06;;;;;;;13.38;2.80;;;15.80;70.10;;;;;;4080574;28;20055;-62
2022/01/17 05:52:29;;;;;;;15.52;3.20;;;15.80;70.10;;;;;;4080282;28;20051;-63
2022/01/17 05:54:52;;;;;;;13.13;3.22;;;15.80;70.20;;;;;;4080739;28;20539;-62
2022/01/17 05:57:16;;;;;;;15.90;2.70;;;15.80;70.20;;;;;;4080364;28;20098;-62
2022/01/17 05:59:41;;;;;;;14.27;3.10;;;15.70;70.30;;;;;;4080586;28;20055;-63
2022/01/17 06:02:04;;;;;;;14.15;2.90;;;15.70;70.30;;;;;;4087761;28;20475;-62
2022/01/17 06:04:27;;;;;;;12.48;2.95;;;15.70;70.50;;;;;;4096036;28;20106;-63
2022/01/17 06:06:51;;;;;;;12.88;2.63;;;15.60;70.70;;;;;;4095891;28;20051;-62
2022/01/17 06:09:14;;;;;;;15.93;3.22;;;15.60;70.90;;;;;;4096122;28;20578;-62
2022/01/17 06:11:37;;;;;;;7.03;2.42;;;15.50;71.00;;;;;;4095877;28;20051;-62
2022/01/17 06:14:00;;;;;;;21.40;3.40;;;15.50;71.20;;;;;;4090202;28;20417;-62
2022/01/17 06:16:24;;;;;;;14.40;2.90;;;15.40;71.50;;;;;;4095923;28;20553;-62
2022/01/17 06:18:47;;;;;;;17.75;2.88;;;15.30;71.70;;;;;;4095674;28;20047;-62
2022/01/17 06:21:10;;;;;;;13.88;2.33;;;15.30;72.20;;;;;;4095218;28;20075;-61
2022/01/17 06:23:33;;;;;;;20.60;3.42;;;15.40;72.10;;;;;;4095649;28;20059;-62
2022/01/17 06:25:56;;;;;;;11.63;2.78;;;15.50;72.50;;;;;;4095724;28;20114;-62
2022/01/17 06:28:19;;;;;;;15.35;3.20;;;15.60;71.20;;;;;;4094938;28;20055;-62
2022/01/17 06:30:42;;;;;;;15.82;3.40;;;15.70;70.90;;;;;;4095977;28;20491;-61
2022/01/17 06:33:07;;;;;;;14.10;3.40;;;15.70;70.70;;;;;;4095721;28;20110;-62
2022/01/17 06:35:31;;;;;;;12.50;2.85;;;15.70;71.40;;;;;;4095355;28;20055;-62
2022/01/17 06:37:55;;;;;;;19.30;3.05;;;15.70;70.50;;;;;;4095840;28;20051;-60
2022/01/17 06:40:19;;;;;;;19.38;4.13;;;15.70;70.70;;;;;;4094075;28;20055;-61
2022/01/17 06:42:42;;;;;;;15.30;3.75;;;15.60;70.90;;;;;;4083117;28;20106;-61
2022/01/17 06:45:07;;;;;;;14.82;3.50;;;15.70;70.90;;;;;;4093387;28;20511;-61
2022/01/17 06:47:30;;;;;;;12.05;2.72;;;15.80;70.60;;;;;;4095360;28;20558;-62
2022/01/17 06:49:54;;;;;;;18.75;4.10;;;15.80;70.10;;;;;;4095528;28;20054;-62
2022/01/17 06:52:17;;;;;;;15.30;3.42;;;15.90;69.60;;;;;;4095379;28;20197;-61
2022/01/17 06:54:41;;;;;;;13.30;3.13;;;15.90;69.30;;;;;;4095040;28;20054;-61
2022/01/17 06:57:05;;;;;;;21.42;4.65;;;16.00;69.30;;;;;;4095427;28;20459;-61
2022/01/17 06:59:28;;;;;;;23.20;3.80;;;16.00;69.40;;;;;;4080902;28;20107;-61
2022/01/17 07:01:51;;;;;;;18.70;4.00;;;16.00;69.40;;;;;;4080411;28;20444;-61
2022/01/17 07:04:15;;;;;;;10.52;2.75;;;16.00;69.30;;;;;;4095074;28;20130;-61
2022/01/17 07:06:40;;;;;;;13.45;3.28;;;16.00;69.10;;;;;;4094975;28;20059;-62
2022/01/17 07:09:05;;;;;;;17.33;3.33;;;16.00;69.10;;;;;;4094953;28;20102;-61
2022/01/17 07:11:28;;;;;;;19.98;4.38;;;16.00;69.10;;;;;;4095139;28;20478;-61
2022/01/17 07:13:51;;;;;;;21.17;3.90;;;15.90;69.20;;;;;;4094014;28;20451;-62
2022/01/17 07:16:14;;;;;;;14.48;4.03;;;15.90;69.30;;;;;;4079155;28;20107;-61
2022/01/17 07:18:38;;;;;;;18.40;3.83;;;15.80;69.50;;;;;;4079158;28;20103;-61
2022/01/17 07:21:01;;;;;;;16.65;3.38;;;15.70;69.90;;;;;;4079053;29;20551;-62
2022/01/17 07:23:25;;;;;;;19.15;3.85;;;15.70;70.40;;;;;;4080026;28;20059;-62
2022/01/17 07:25:48;;;;;;;26.85;4.55;;;15.70;70.80;;;;;;4083586;28;20055;-61
2022/01/17 07:28:13;;;;;;;20.92;3.85;;;15.70;70.90;;;;;;4086645;28;20044;-62
2022/01/17 07:30:36;;;;;;;16.90;3.72;;;15.80;70.90;;;;;;4096946;28;20081;-63
2022/01/17 07:32:59;;;;;;;20.40;3.47;;;15.80;71.00;;;;;;4094134;28;20051;-63
2022/01/17 07:35:22;;;;;;;17.13;3.67;;;15.80;71.00;;;;;;4094584;28;20059;-63
2022/01/17 07:37:45;;;;;;;17.27;4.53;;;15.80;70.90;;;;;;4093986;28;20101;-63
2022/01/17 07:40:11;;;;;;;16.02;3.40;;;15.90;70.90;;;;;;4097483;28;20055;-63
2022/01/17 07:42:34;;;;;;;25.85;4.40;;;15.90;70.80;;;;;;4093989;28;20436;-63
2022/01/17 07:44:59;;;;;;;21.55;4.28;;;15.80;70.60;;;;;;4094594;28;20059;-63
2022/01/17 07:47:37;;;;;;;21.23;3.88;;;15.80;70.50;;;;;;4093070;28;20055;-62
2022/01/17 07:50:01;;;;;;;18.85;3.28;;;15.80;70.50;;;;;;4092664;28;20059;-63
2022/01/17 07:52:29;;;;;;;21.58;3.10;;;15.80;70.60;;;;;;4089665;28;20043;-63
2022/01/17 07:54:53;;;;;;;27.98;5.82;;;15.80;70.90;;;;;;4088191;28;20098;-63
2022/01/17 07:57:18;;;;;;;25.27;3.80;;;15.70;70.90;;;;;;4079878;28;20543;-63
2022/01/17 07:59:42;;;;;;;23.88;4.07;;;15.70;71.10;;;;;;4095289;28;20451;-63
2022/01/17 08:02:05;;;;;;;22.90;3.70;;;15.60;71.40;;;;;;4094431;28;20068;-63
2022/01/17 08:04:28;;;;;;;23.73;4.07;;;15.60;71.40;;;;;;4094255;28;20051;-63
2022/01/17 08:06:52;;;;;;;24.42;4.03;;;15.50;71.60;;;;;;4094267;28;20102;-63
2022/01/17 08:09:18;;;;;;;22.65;3.80;;;15.50;71.90;;;;;;4077290;29;20055;-63
2022/01/17 08:11:56;;;;;;;23.77;4.93;;;15.50;72.20;;;;;;4088907;28;21034;-63
2022/01/17 08:14:22;;;;;;;17.65;3.22;;;15.40;72.30;;;;;;4093904;28;20102;-63
2022/01/17 08:16:45;;;;;;;27.80;4.43;;;15.40;72.50;;;;;;4091954;28;20062;-63
2022/01/17 08:19:09;;;;;;;21.48;4.00;;;15.40;72.80;;;;;;4092557;28;20055;-62
2022/01/17 08:21:32;;;;;;;21.08;4.28;;;15.30;72.70;;;;;;4091505;28;20594;-63
2022/01/17 08:23:55;;;;;;;19.25;4.93;;;15.30;72.90;;;;;;4091638;28;20476;-63
2022/01/17 08:26:18;;;;;;;23.92;3.78;;;15.30;73.00;;;;;;4091400;28;20131;-63
2022/01/17 08:28:42;;;;;;;16.08;3.35;;;15.20;73.20;;;;;;4090446;28;20106;-63
2022/01/17 08:31:06;;;;;;;20.33;3.58;;;15.20;73.20;;;;;;4091666;28;20051;-63
2022/01/17 08:33:40;;;;;;;23.10;3.95;;;15.20;73.50;;;;;;4090560;28;20055;-62
2022/01/17 08:36:04;;;;;;;17.27;3.70;;;15.20;73.50;;;;;;4091817;28;20106;-63
2022/01/17 08:38:43;;;;;;;21.75;3.78;;;15.30;73.30;;;;;;4091011;28;20419;-63
2022/01/17 08:41:06;;;;;;;21.05;4.75;;;15.40;73.00;;;;;;4091393;28;20059;-63
2022/01/17 08:43:29;;;;;;;22.35;4.30;;;15.40;72.60;;;;;;4090811;28;20180;-63
2022/01/17 08:45:55;;;;;;;27.92;4.10;;;15.40;72.40;;;;;;4092620;28;20086;-63
2022/01/17 08:48:19;;;;;;;24.23;5.40;;;15.50;72.40;;;;;;4094550;28;20054;-62
2022/01/17 08:50:43;;;;;;;24.52;5.55;;;15.50;72.40;;;;;;4094565;28;20059;-61
2022/01/17 08:53:10;;;;;;;44.58;11.30;;;15.50;72.30;;;;;;4094078;28;20098;-60
2022/01/17 08:55:33;;;;;;;19.38;4.15;;;15.50;72.20;;;;;;4091653;28;20062;-63
2022/01/17 08:57:58;;;;;;;28.40;5.40;;;15.50;72.30;;;;;;4094267;28;20047;-63
2022/01/17 09:00:21;;;;;;;18.27;3.80;;;15.50;72.20;;;;;;4093738;28;20055;-62
2022/01/17 09:03:04;;;;;;;25.55;5.15;;;15.40;73.30;;;;;;4093341;28;20093;-60
2022/01/17 09:05:29;;;;;;;23.50;4.88;;;15.40;72.50;;;;;;4094705;28;20055;-61
2022/01/17 09:07:52;;;;;;;21.77;3.78;;;15.40;72.60;;;;;;4093436;28;20043;-62
2022/01/17 09:10:16;;;;;;;22.17;5.03;;;15.50;72.60;;;;;;4094582;28;20094;-63
2022/01/17 09:12:39;;;;;;;28.23;5.72;;;15.40;72.60;;;;;;4094534;28;20059;-63
2022/01/17 09:15:03;;;;;;;26.48;5.72;;;15.40;72.50;;;;;;4093174;28;20051;-60
2022/01/17 09:17:26;;;;;;;29.73;5.03;;;15.40;72.60;;;;;;4094378;28;20129;-61
2022/01/17 09:19:50;;;;;;;23.85;4.63;;;15.40;72.60;;;;;;4094337;28;20051;-61
2022/01/17 09:22:14;;;;;;;29.17;5.35;;;15.40;72.50;;;;;;4093221;28;20098;-60
2022/01/17 09:24:39;;;;;;;30.17;5.80;;;15.40;72.50;;;;;;4094038;28;20051;-61
2022/01/17 09:27:02;;;;;;;29.83;5.35;;;15.30;72.50;;;;;;4094275;28;20055;-60
2022/01/17 09:29:25;;;;;;;26.15;5.00;;;15.30;72.70;;;;;;4093365;28;20063;-60
2022/01/17 09:31:48;;;;;;;21.77;4.40;;;15.30;72.70;;;;;;4093778;28;20238;-60
2022/01/17 09:34:12;;;;;;;27.58;4.68;;;15.20;72.50;;;;;;4093581;28;20142;-61
2022/01/17 09:36:35;;;;;;;27.98;5.10;;;15.20;73.00;;;;;;4093625;28;20443;-61
2022/01/17 09:39:00;;;;;;;24.75;5.13;;;15.20;73.20;;;;;;4093768;28;20102;-62
2022/01/17 09:41:24;;;;;;;28.80;5.55;;;15.20;73.30;;;;;;4094049;28;20110;-60
2022/01/17 09:43:47;;;;;;;31.00;5.55;;;15.10;73.30;;;;;;4093849;28;20047;-60
2022/01/17 09:46:11;;;;;;;32.97;5.25;;;15.10;73.40;;;;;;4093122;28;20125;-61
2022/01/17 09:48:39;;;;;;;21.98;4.88;;;15.10;73.60;;;;;;4094026;28;20051;-60
2022/01/17 09:51:05;;;;;;;29.73;5.13;;;15.10;73.80;;;;;;4093643;28;20054;-60
2022/01/17 09:53:29;;;;;;;33.60;6.00;;;15.00;74.00;;;;;;4093175;28;20082;-60
2022/01/17 09:55:55;;;;;;;28.40;6.40;;;15.00;73.90;;;;;;4092714;28;20051;-60
2022/01/17 09:58:18;;;;;;;36.33;6.03;;;15.00;73.90;;;;;;4093769;28;20055;-60
2022/01/17 10:00:44;;;;;;;28.10;4.57;;;15.00;74.00;;;;;;4094149;28;20114;-60
2022/01/17 10:03:12;;;;;;;35.33;6.18;;;15.00;74.00;;;;;;4092745;28;20075;-60
2022/01/17 10:05:37;;;;;;;33.50;7.22;;;15.00;74.30;;;;;;4093795;28;20055;-60
2022/01/17 10:08:03;;;;;;;34.33;6.30;;;15.00;74.20;;;;;;4093688;28;20055;-60
2022/01/17 10:10:43;;;;;;;25.38;4.95;;;15.00;74.50;;;;;;4093139;28;20055;-60
2022/01/17 10:13:10;;;;;;;36.83;5.90;;;14.90;74.60;;;;;;4091804;28;20098;-60
2022/01/17 10:15:44;;;;;;;23.95;6.00;;;14.90;75.00;;;;;;4093405;28;20207;-61
2022/01/17 10:18:07;;;;;;;36.45;7.28;;;15.00;75.10;;;;;;4092899;28;20118;-62
2022/01/17 10:20:33;;;;;;;38.72;6.68;;;15.10;74.90;;;;;;4093247;28;20051;-62
2022/01/17 10:23:16;;;;;;;32.30;6.55;;;15.20;74.60;;;;;;4093508;28;20086;-62
2022/01/17 10:25:51;;;;;;;28.77;5.70;;;15.20;74.00;;;;;;4092578;28;21976;-62
2022/01/17 10:28:45;;;;;;;30.95;6.03;;;15.30;73.90;;;;;;4091670;28;20039;-61
2022/01/17 10:36:51;;;;;;;40.00;5.45;;;15.40;73.40;;;;;;4092660;28;20043;-61
2022/01/17 10:39:14;;;;;;;34.00;7.72;;;15.40;73.50;;;;;;4092998;28;20055;-60
2022/01/17 10:41:37;;;;;;;29.08;6.75;;;15.30;73.40;;;;;;4092595;28;20380;-60
2022/01/17 10:44:01;;;;;;;34.13;5.78;;;15.30;73.60;;;;;;4092918;28;20461;-62
2022/01/17 10:46:25;;;;;;;37.03;7.70;;;15.30;73.70;;;;;;4092154;28;20117;-62
2022/01/17 10:48:48;;;;;;;24.05;5.95;;;15.30;74.10;;;;;;4092746;28;20051;-63
2022/01/17 10:51:13;;;;;;;31.48;6.97;;;15.20;74.30;;;;;;4092742;28;20051;-63
2022/01/17 10:53:39;;;;;;;33.45;6.35;;;15.30;74.30;;;;;;4092810;28;20102;-64
2022/01/17 10:56:07;;;;;;;28.45;5.00;;;15.30;74.40;;;;;;4091582;28;20515;-63
2022/01/17 10:58:33;;;;;;;34.58;6.95;;;15.40;74.10;;;;;;4092243;28;20432;-63
2022/01/17 11:01:01;;;;;;;32.33;5.15;;;15.40;73.90;;;;;;4092634;28;20079;-63
2022/01/17 11:03:27;;;;;;;26.73;5.63;;;15.40;73.80;;;;;;4092452;28;20094;-64
2022/01/17 11:05:53;;;;;;;43.17;6.32;;;15.40;73.80;;;;;;4092697;28;20083;-62
2022/01/17 11:08:18;;;;;;;37.80;6.22;;;15.40;73.80;;;;;;4092592;28;20059;-63
2022/01/17 11:10:43;;;;;;;39.47;8.38;;;15.40;74.00;;;;;;4092406;28;20744;-63
2022/01/17 11:13:08;;;;;;;33.45;7.00;;;15.40;73.90;;;;;;4092455;28;20054;-62
2022/01/17 11:15:34;;;;;;;28.65;6.13;;;15.40;74.00;;;;;;4092537;28;20736;-62
2022/01/17 11:18:01;;;;;;;40.22;7.72;;;15.30;74.20;;;;;;4092554;28;20538;-62
2022/01/17 11:20:26;;;;;;;34.90;6.00;;;15.30;74.20;;;;;;4091972;28;20059;-63
2022/01/17 11:22:51;;;;;;;38.08;6.85;;;15.30;74.20;;;;;;4092546;28;20451;-62
2022/01/17 11:25:16;;;;;;;41.67;7.00;;;15.30;74.30;;;;;;4091668;28;20102;-62
2022/01/17 11:27:40;;;;;;;41.60;7.82;;;15.20;74.50;;;;;;4092524;28;20055;-62
2022/01/17 11:30:05;;;;;;;33.05;6.82;;;15.20;74.70;;;;;;4092467;28;20055;-62
2022/01/17 11:32:28;;;;;;;33.92;6.65;;;15.20;74.70;;;;;;4090674;28;20495;-62
2022/01/17 11:34:54;;;;;;;40.60;6.47;;;15.10;74.70;;;;;;4092232;28;20063;-62
2022/01/17 11:37:19;;;;;;;37.92;7.18;;;15.10;74.90;;;;;;4092569;28;20075;-63
2022/01/17 11:39:46;;;;;;;24.95;5.15;;;15.10;74.70;;;;;;4092280;28;20051;-63
2022/01/17 11:42:29;;;;;;;35.28;7.03;;;15.00;74.80;;;;;;4092341;28;20106;-62
2022/01/17 11:44:52;;;;;;;43.75;6.55;;;15.10;75.10;;;;;;4091412;28;20059;-64
2022/01/17 11:47:15;;;;;;;35.08;8.15;;;15.00;75.20;;;;;;4091927;28;20055;-64
2022/01/17 11:49:40;;;;;;;35.22;6.53;;;15.00;74.90;;;;;;4091165;28;20051;-63
2022/01/17 11:52:07;;;;;;;41.47;7.43;;;15.00;75.30;;;;;;4091976;28;20061;-63
2022/01/17 11:54:31;;;;;;;37.78;7.53;;;15.00;75.30;;;;;;4091312;28;20054;-63
2022/01/17 11:56:56;;;;;;;34.35;7.47;;;14.90;75.20;;;;;;4091326;28;20129;-63
2022/01/17 11:59:37;;;;;;;45.00;7.57;;;14.90;75.00;;;;;;4090607;28;20051;-63
2022/01/17 12:02:24;;;;;;;35.03;6.93;;;14.90;75.20;;;;;;4091226;28;20055;-63
2022/01/17 12:05:25;;;;;;;38.40;7.15;;;14.90;75.50;;;;;;4091039;28;20471;-63
2022/01/17 12:07:53;;;;;;;37.67;8.32;;;14.90;75.60;;;;;;4089815;28;20184;-63
2022/01/17 12:10:19;;;;;;;34.45;6.63;;;14.90;75.80;;;;;;4092047;28;20055;-64
2022/01/17 12:12:43;;;;;;;46.83;7.70;;;14.90;75.80;;;;;;4091811;28;20051;-63
2022/01/17 12:15:15;;;;;;;35.88;7.13;;;14.80;75.80;;;;;;4091788;28;20118;-63
2022/01/17 12:17:38;;;;;;;36.90;6.45;;;14.80;75.90;;;;;;4091144;28;20055;-63
2022/01/17 12:20:21;;;;;;;42.95;8.00;;;14.80;75.90;;;;;;4090676;28;20806;-64
2022/01/17 12:22:57;;;;;;;37.70;7.18;;;14.80;75.90;;;;;;4091027;28;20054;-63
2022/01/17 12:25:35;;;;;;;37.58;7.40;;;14.80;75.60;;;;;;4090552;28;20353;-64
2022/01/17 12:28:24;;;;;;;37.42;6.13;;;14.80;75.80;;;;;;4090874;28;20098;-64
2022/01/17 12:30:49;;;;;;;33.97;6.75;;;14.70;76.10;;;;;;4085676;28;20060;-63
2022/01/17 12:33:13;;;;;;;35.50;6.78;;;14.70;76.30;;;;;;4098603;28;20110;-63
2022/01/17 12:35:46;;;;;;;34.13;7.05;;;14.70;76.30;;;;;;4091374;28;20078;-63
2022/01/17 12:38:29;;;;;;;41.65;7.97;;;14.70;76.30;;;;;;4091649;28;20078;-63
2022/01/17 12:40:53;;;;;;;34.78;6.65;;;14.70;77.30;;;;;;4090686;28;20047;-62
2022/01/17 12:43:17;;;;;;;28.48;5.22;;;14.70;77.40;;;;;;4091111;28;20190;-63
2022/01/17 12:45:42;;;;;;;31.70;6.05;;;14.60;76.70;;;;;;4091541;28;20107;-64
2022/01/17 12:48:07;;;;;;;25.60;4.90;;;14.60;76.60;;;;;;4090379;28;20093;-64
2022/01/17 12:50:32;;;;;;;31.88;6.47;;;14.60;76.50;;;;;;4091574;28;20102;-63